createdAt,value
2017-08-21T00:01:01.822Z,10.30
2017-08-21T00:03:29.391Z,10.40
2017-08-21T00:05:56.959Z,10.50
2017-08-21T00:08:24.498Z,10.50
2017-08-21T00:10:52.054Z,10.60
2017-08-21T00:13:19.615Z,10.50
2017-08-21T00:15:47.161Z,10.30
2017-08-21T00:18:14.750Z,10.20
2017-08-21T00:20:42.303Z,10.10
2017-08-21T00:23:10.635Z,9.90
2017-08-21T00:25:38.186Z,9.90
2017-08-21T00:28:05.798Z,9.80
2017-08-21T00:30:33.326Z,9.90
2017-08-21T00:33:00.886Z,9.90
2017-08-21T00:35:28.443Z,9.90
2017-08-21T00:37:56.008Z,9.90
2017-08-21T00:40:23.546Z,9.90
2017-08-21T00:42:51.098Z,9.90
2017-08-21T00:45:19.418Z,9.80
2017-08-21T00:47:47.024Z,9.80
2017-08-21T00:50:14.594Z,9.70
2017-08-21T00:52:42.147Z,9.80
2017-08-21T00:55:09.738Z,9.80
2017-08-21T00:57:38.036Z,9.90
2017-08-21T01:00:05.602Z,9.90
2017-08-21T01:02:33.254Z,10.00
2017-08-21T01:05:01.612Z,10.10
2017-08-21T01:07:29.173Z,10.00
2017-08-21T01:09:56.747Z,10.10
2017-08-21T01:12:24.292Z,10.00
2017-08-21T01:14:51.858Z,10.00
2017-08-21T01:17:19.381Z,9.90
2017-08-21T01:19:46.940Z,9.90
2017-08-21T01:22:14.496Z,9.90
2017-08-21T01:24:43.818Z,10.00
2017-08-21T01:27:11.384Z,9.90
2017-08-21T01:29:38.964Z,10.00
2017-08-21T01:32:06.526Z,9.90
2017-08-21T01:34:34.088Z,9.90
2017-08-21T01:37:01.648Z,9.80
2017-08-21T01:39:29.217Z,9.70
2017-08-21T01:41:56.766Z,9.60
2017-08-21T01:44:24.365Z,9.70
2017-08-21T01:46:51.915Z,9.70
2017-08-21T01:49:19.444Z,9.70
2017-08-21T01:51:47.790Z,9.60
2017-08-21T01:54:15.345Z,9.60
2017-08-21T01:56:42.908Z,9.60
2017-08-21T01:59:10.465Z,9.50
2017-08-21T02:01:38.026Z,9.50
2017-08-21T02:04:05.601Z,9.50
2017-08-21T02:06:33.141Z,9.60
2017-08-21T02:09:00.700Z,9.60
2017-08-21T02:11:28.241Z,9.60
2017-08-21T02:13:56.576Z,9.60
2017-08-21T02:16:24.114Z,9.60
2017-08-21T02:18:51.708Z,9.70
2017-08-21T02:21:19.245Z,9.70
2017-08-21T02:23:46.813Z,9.70
2017-08-21T02:26:14.359Z,9.70
2017-08-21T02:28:42.693Z,9.60
2017-08-21T02:31:10.269Z,9.50
2017-08-21T02:33:37.840Z,9.60
2017-08-21T02:36:05.392Z,9.60
2017-08-21T02:38:44.879Z,9.70
2017-08-21T02:41:12.431Z,9.70
2017-08-21T02:43:39.990Z,9.70
2017-08-21T02:46:07.577Z,9.70
2017-08-21T02:48:35.121Z,9.70
2017-08-21T02:51:03.462Z,9.70
2017-08-21T02:53:31.022Z,9.70
2017-08-21T02:55:58.582Z,9.70
2017-08-21T02:58:27.169Z,9.70
2017-08-21T03:00:57.362Z,9.70
2017-08-21T03:03:25.875Z,9.60
2017-08-21T03:05:55.106Z,9.50
2017-08-21T03:08:22.668Z,9.50
2017-08-21T03:10:50.221Z,9.50
2017-08-21T03:13:17.783Z,9.40
2017-08-21T03:15:45.392Z,9.40
2017-08-21T03:18:13.719Z,9.30
2017-08-21T03:20:41.296Z,9.30
2017-08-21T03:23:08.833Z,9.30
2017-08-21T03:25:36.672Z,9.30
2017-08-21T03:28:04.861Z,9.40
2017-08-21T03:30:33.184Z,9.50
2017-08-21T03:33:00.769Z,9.50
2017-08-21T03:35:28.296Z,9.50
2017-08-21T03:37:55.858Z,9.50
2017-08-21T03:40:23.408Z,9.50
2017-08-21T03:42:51.774Z,9.60
2017-08-21T03:45:20.081Z,9.50
2017-08-21T03:47:50.792Z,9.50
2017-08-21T03:50:19.127Z,9.50
2017-08-21T03:52:46.715Z,9.40
2017-08-21T03:55:43.757Z,9.40
2017-08-21T03:58:11.303Z,9.40
2017-08-21T04:00:38.809Z,9.30
2017-08-21T04:03:06.323Z,9.30
2017-08-21T04:05:33.880Z,9.30
2017-08-21T04:08:01.394Z,9.30
2017-08-21T04:10:28.938Z,9.30
2017-08-21T04:12:56.468Z,9.30
2017-08-21T04:15:23.997Z,9.40
2017-08-21T04:17:51.515Z,9.40
2017-08-21T04:20:19.055Z,9.50
2017-08-21T04:22:46.570Z,9.50
2017-08-21T04:25:14.113Z,9.60
2017-08-21T04:27:41.626Z,9.60
2017-08-21T04:30:09.138Z,9.70
2017-08-21T04:32:36.709Z,9.80
2017-08-21T04:35:04.255Z,9.90
2017-08-21T04:37:31.785Z,9.90
2017-08-21T04:39:59.293Z,9.90
2017-08-21T04:42:26.833Z,9.90
2017-08-21T04:44:54.351Z,9.80
2017-08-21T04:47:21.894Z,9.80
2017-08-21T04:49:49.409Z,9.80
2017-08-21T04:52:16.939Z,9.80
2017-08-21T04:54:44.451Z,9.80
2017-08-21T04:57:11.989Z,10.00
2017-08-21T04:59:39.511Z,10.10
2017-08-21T05:02:07.086Z,10.20
2017-08-21T05:04:34.614Z,10.30
2017-08-21T05:07:02.130Z,10.50
2017-08-21T05:09:29.661Z,10.70
2017-08-21T05:11:57.198Z,10.90
2017-08-21T05:14:24.734Z,11.10
2017-08-21T05:16:52.251Z,11.20
2017-08-21T05:19:19.795Z,11.30
2017-08-21T05:21:47.304Z,11.40
2017-08-21T05:24:14.852Z,11.40
2017-08-21T05:26:42.370Z,11.60
2017-08-21T05:29:09.908Z,11.80
2017-08-21T05:31:37.415Z,12.10
2017-08-21T05:34:04.958Z,12.50
2017-08-21T05:36:32.476Z,14.30
2017-08-21T05:39:00.021Z,16.50
2017-08-21T05:41:27.541Z,17.70
2017-08-21T05:43:55.070Z,19.20
2017-08-21T05:46:22.673Z,20.60
2017-08-21T05:48:50.197Z,21.30
2017-08-21T05:51:17.737Z,21.80
2017-08-21T05:53:45.257Z,22.00
2017-08-21T05:56:12.793Z,21.80
2017-08-21T05:58:40.337Z,22.00
2017-08-21T06:01:07.881Z,22.10
2017-08-21T06:03:35.413Z,22.60
2017-08-21T06:06:02.956Z,23.60
2017-08-21T06:08:30.467Z,23.80
2017-08-21T06:10:58.020Z,24.00
2017-08-21T06:13:25.537Z,23.90
2017-08-21T06:15:53.138Z,24.00
2017-08-21T06:18:20.663Z,24.20
2017-08-21T06:20:48.258Z,24.30
2017-08-21T06:23:15.774Z,23.80
2017-08-21T06:25:43.285Z,21.60
2017-08-21T06:28:10.842Z,20.10
2017-08-21T06:30:38.468Z,21.30
2017-08-21T06:33:06.046Z,22.90
2017-08-21T06:35:33.571Z,23.80
2017-08-21T06:38:01.110Z,24.40
2017-08-21T06:40:28.630Z,24.40
2017-08-21T06:42:56.187Z,24.30
2017-08-21T06:45:23.723Z,23.80
2017-08-21T06:47:51.266Z,23.80
2017-08-21T06:50:18.853Z,23.20
2017-08-21T06:52:46.452Z,22.50
2017-08-21T06:55:14.015Z,21.80
2017-08-21T06:57:41.531Z,21.40
2017-08-21T07:00:09.066Z,20.70
2017-08-21T07:02:36.677Z,19.90
2017-08-21T07:05:04.218Z,19.60
2017-08-21T07:07:31.731Z,19.90
2017-08-21T07:09:59.269Z,20.30
2017-08-21T07:12:26.797Z,20.40
2017-08-21T07:14:54.346Z,20.40
2017-08-21T07:17:21.873Z,20.30
2017-08-21T07:19:49.418Z,20.00
2017-08-21T07:24:54.144Z,20.30
2017-08-21T07:27:21.666Z,20.20
2017-08-21T07:29:49.193Z,20.50
2017-08-21T07:32:16.733Z,21.00
2017-08-21T07:34:44.251Z,21.00
2017-08-21T07:37:11.795Z,21.00
2017-08-21T07:39:39.325Z,21.10
2017-08-21T07:42:06.858Z,21.00
2017-08-21T07:44:34.411Z,20.90
2017-08-21T07:47:01.939Z,20.90
2017-08-21T07:49:29.483Z,20.90
2017-08-21T07:51:57.025Z,20.80
2017-08-21T07:54:24.545Z,20.80
2017-08-21T07:56:52.096Z,20.50
2017-08-21T07:59:19.618Z,20.00
2017-08-21T08:01:47.217Z,20.20
2017-08-21T08:04:15.506Z,20.90
2017-08-21T08:06:43.053Z,20.90
2017-08-21T08:09:10.578Z,20.70
2017-08-21T08:11:38.094Z,20.80
2017-08-21T08:14:05.635Z,21.20
2017-08-21T08:16:33.150Z,21.20
2017-08-21T08:19:00.690Z,22.20
2017-08-21T08:21:28.203Z,22.10
2017-08-21T08:23:56.525Z,22.40
2017-08-21T08:26:24.046Z,22.40
2017-08-21T08:28:51.585Z,22.40
2017-08-21T08:31:19.119Z,21.80
2017-08-21T08:33:46.661Z,21.10
2017-08-21T08:36:14.194Z,22.00
2017-08-21T08:38:41.742Z,21.90
2017-08-21T08:41:09.266Z,22.80
2017-08-21T08:43:36.806Z,23.40
2017-08-21T08:46:04.369Z,23.70
2017-08-21T08:48:31.916Z,24.60
2017-08-21T08:50:59.454Z,25.00
2017-08-21T08:53:27.013Z,25.00
2017-08-21T08:58:31.740Z,25.80
2017-08-21T09:00:59.283Z,24.90
2017-08-21T09:03:27.801Z,23.50
2017-08-21T09:05:55.359Z,23.30
2017-08-21T09:08:22.914Z,24.00
2017-08-21T09:10:50.465Z,24.80
2017-08-21T09:13:17.982Z,25.10
2017-08-21T09:15:45.519Z,25.60
2017-08-21T09:18:13.035Z,25.80
2017-08-21T09:20:40.578Z,25.70
2017-08-21T09:23:08.098Z,25.70
2017-08-21T09:25:35.611Z,25.50
2017-08-21T09:28:03.151Z,25.80
2017-08-21T09:30:30.677Z,25.80
2017-08-21T09:32:58.241Z,26.20
2017-08-21T09:35:25.758Z,26.60
2017-08-21T09:37:53.302Z,27.00
2017-08-21T09:40:20.821Z,27.40
2017-08-21T09:42:48.356Z,26.60
2017-08-21T09:45:15.899Z,27.00
2017-08-21T09:47:43.447Z,27.40
2017-08-21T09:50:10.993Z,27.20
2017-08-21T09:52:38.534Z,27.30
2017-08-21T09:55:06.054Z,27.40
2017-08-21T09:57:33.595Z,28.10
2017-08-21T10:00:01.115Z,28.30
2017-08-21T10:02:28.636Z,28.80
2017-08-21T10:04:56.182Z,28.90
2017-08-21T10:07:23.721Z,27.60
2017-08-21T10:09:51.266Z,27.30
2017-08-21T10:12:18.798Z,27.70
2017-08-21T10:14:46.333Z,27.80
2017-08-21T10:17:13.869Z,28.00
2017-08-21T10:19:41.480Z,27.50
2017-08-21T10:22:09.010Z,28.10
2017-08-21T10:24:36.548Z,28.70
2017-08-21T10:27:04.072Z,28.50
2017-08-21T10:29:32.046Z,28.00
2017-08-21T10:31:59.566Z,27.90
2017-08-21T10:34:27.133Z,27.10
2017-08-21T10:36:54.662Z,26.70
2017-08-21T10:39:22.181Z,26.80
2017-08-21T10:41:49.718Z,26.40
2017-08-21T10:44:17.238Z,26.30
2017-08-21T10:46:44.780Z,25.70
2017-08-21T10:49:12.299Z,24.40
2017-08-21T10:51:39.858Z,23.10
2017-08-21T10:54:07.387Z,22.80
2017-08-21T10:56:34.920Z,23.50
2017-08-21T10:59:02.455Z,23.70
2017-08-21T11:01:29.982Z,23.50
2017-08-21T11:03:57.542Z,22.50
2017-08-21T11:06:25.078Z,21.90
2017-08-21T11:08:52.598Z,22.10
2017-08-21T11:11:20.134Z,22.30
2017-08-21T11:13:47.648Z,22.10
2017-08-21T11:16:15.218Z,22.60
2017-08-21T11:18:42.746Z,24.00
2017-08-21T11:21:10.261Z,25.70
2017-08-21T11:23:37.795Z,27.20
2017-08-21T11:26:05.327Z,27.30
2017-08-21T11:28:32.842Z,27.20
2017-08-21T11:31:00.377Z,26.80
2017-08-21T11:33:27.898Z,26.20
2017-08-21T11:35:55.464Z,25.50
2017-08-21T11:38:22.982Z,24.60
2017-08-21T11:40:50.516Z,23.50
2017-08-21T11:43:18.030Z,22.90
2017-08-21T11:45:45.567Z,22.80
2017-08-21T11:48:13.082Z,22.60
2017-08-21T11:50:40.623Z,22.60
2017-08-21T11:53:08.141Z,22.30
2017-08-21T11:55:35.682Z,22.60
2017-08-21T11:58:03.201Z,22.80
2017-08-21T12:00:30.743Z,23.40
2017-08-21T12:02:58.270Z,24.30
2017-08-21T12:05:25.830Z,24.60
2017-08-21T12:07:53.345Z,25.00
2017-08-21T12:10:20.864Z,25.30
2017-08-21T12:12:48.405Z,25.80
2017-08-21T12:15:15.929Z,25.90
2017-08-21T12:17:43.474Z,25.30
2017-08-21T12:20:11.026Z,25.70
2017-08-21T12:22:38.574Z,26.60
2017-08-21T12:25:06.090Z,27.30
2017-08-21T12:27:33.639Z,27.70
2017-08-21T12:30:01.154Z,28.10
2017-08-21T12:32:29.376Z,27.90
2017-08-21T12:34:56.898Z,28.10
2017-08-21T12:37:24.434Z,28.40
2017-08-21T12:39:51.949Z,28.50
2017-08-21T12:42:19.484Z,28.20
2017-08-21T12:44:47.002Z,28.20
2017-08-21T12:47:14.545Z,26.60
2017-08-21T12:49:42.135Z,25.70
2017-08-21T12:52:09.673Z,25.10
2017-08-21T12:54:37.185Z,24.30
2017-08-21T12:57:04.726Z,23.80
2017-08-21T12:59:32.457Z,23.30
2017-08-21T13:01:59.992Z,23.20
2017-08-21T13:04:27.528Z,23.00
2017-08-21T13:06:55.042Z,22.90
2017-08-21T13:09:22.594Z,22.60
2017-08-21T13:11:50.107Z,23.30
2017-08-21T13:14:17.645Z,23.70
2017-08-21T13:16:45.159Z,23.90
2017-08-21T13:19:12.710Z,23.80
2017-08-21T13:21:40.218Z,23.70
2017-08-21T13:24:07.767Z,23.00
2017-08-21T13:26:35.299Z,22.80
2017-08-21T13:29:02.818Z,23.10
2017-08-21T13:31:30.350Z,23.40
2017-08-21T13:33:57.871Z,23.70
2017-08-21T13:36:25.424Z,24.10
2017-08-21T13:38:52.945Z,24.10
2017-08-21T13:41:20.489Z,23.80
2017-08-21T13:43:48.033Z,24.00
2017-08-21T13:46:15.627Z,24.60
2017-08-21T13:48:43.142Z,25.30
2017-08-21T13:51:10.673Z,26.00
2017-08-21T13:53:38.194Z,26.70
2017-08-21T13:56:05.741Z,26.60
2017-08-21T13:58:33.273Z,26.60
2017-08-21T14:01:00.791Z,25.60
2017-08-21T14:03:28.326Z,24.80
2017-08-21T14:05:55.947Z,23.70
2017-08-21T14:08:23.488Z,23.30
2017-08-21T14:10:51.034Z,23.70
2017-08-21T14:13:18.569Z,24.10
2017-08-21T14:15:46.106Z,23.50
2017-08-21T14:18:14.634Z,23.10
2017-08-21T14:20:42.186Z,22.60
2017-08-21T14:23:09.733Z,22.50
2017-08-21T14:25:37.266Z,22.10
2017-08-21T14:28:04.882Z,22.00
2017-08-21T14:30:32.427Z,21.90
2017-08-21T14:32:59.970Z,21.80
2017-08-21T14:35:27.497Z,21.80
2017-08-21T14:37:55.051Z,21.40
2017-08-21T14:40:22.573Z,21.50
2017-08-21T14:42:50.093Z,22.10
2017-08-21T14:45:17.629Z,22.60
2017-08-21T14:47:45.759Z,22.80
2017-08-21T14:50:13.307Z,22.80
2017-08-21T14:52:40.829Z,22.70
2017-08-21T14:55:08.382Z,22.90
2017-08-21T14:57:35.898Z,23.30
2017-08-21T15:00:03.435Z,22.90
2017-08-21T15:02:30.970Z,23.20
2017-08-21T15:04:58.491Z,23.70
2017-08-21T15:07:26.028Z,24.00
2017-08-21T15:09:53.538Z,24.20
2017-08-21T15:12:21.077Z,24.30
2017-08-21T15:14:48.617Z,24.20
2017-08-21T15:17:16.309Z,24.00
2017-08-21T15:19:43.817Z,24.10
2017-08-21T15:22:11.756Z,24.30
2017-08-21T15:24:39.270Z,24.50
2017-08-21T15:27:06.802Z,24.40
2017-08-21T15:29:34.327Z,24.30
2017-08-21T15:32:01.859Z,23.90
2017-08-21T15:34:29.369Z,23.80
2017-08-21T15:36:56.898Z,23.90
2017-08-21T15:39:24.431Z,23.60
2017-08-21T15:41:51.984Z,23.40
2017-08-21T15:44:19.509Z,23.20
2017-08-21T15:46:47.046Z,22.80
2017-08-21T15:49:14.559Z,22.50
2017-08-21T15:51:42.100Z,22.20
2017-08-21T15:54:09.621Z,22.40
2017-08-21T15:56:37.192Z,22.30
2017-08-21T15:59:04.722Z,22.30
2017-08-21T16:01:32.234Z,22.10
2017-08-21T16:03:59.779Z,21.80
2017-08-21T16:06:27.300Z,21.80
2017-08-21T16:08:54.837Z,22.00
2017-08-21T16:11:22.352Z,21.80
2017-08-21T16:13:49.901Z,21.50
2017-08-21T16:16:17.449Z,21.50
2017-08-21T16:18:45.087Z,21.60
2017-08-21T16:21:12.610Z,21.70
2017-08-21T16:23:40.157Z,21.70
2017-08-21T16:26:07.681Z,21.40
2017-08-21T16:28:35.235Z,21.10
2017-08-21T16:31:02.752Z,20.80
2017-08-21T16:33:30.294Z,20.50
2017-08-21T16:35:57.895Z,20.30
2017-08-21T16:38:25.486Z,20.30
2017-08-21T16:40:53.026Z,20.30
2017-08-21T16:43:20.546Z,20.30
2017-08-21T16:45:48.096Z,20.20
2017-08-21T16:48:15.650Z,20.10
2017-08-21T16:50:43.213Z,19.90
2017-08-21T16:53:10.758Z,19.70
2017-08-21T16:55:38.313Z,19.50
2017-08-21T16:58:05.835Z,19.40
2017-08-21T17:00:33.447Z,19.30
2017-08-21T17:03:00.968Z,19.20
2017-08-21T17:05:28.533Z,19.00
2017-08-21T17:07:56.069Z,18.90
2017-08-21T17:10:23.599Z,18.80
2017-08-21T17:12:51.350Z,18.70
2017-08-21T17:15:18.881Z,18.60
2017-08-21T17:17:47.403Z,18.50
2017-08-21T17:20:14.917Z,18.40
2017-08-21T17:22:42.460Z,18.40
2017-08-21T17:25:09.989Z,18.30
2017-08-21T17:27:37.517Z,18.20
2017-08-21T17:30:05.070Z,18.10
2017-08-21T17:32:33.637Z,18.00
2017-08-21T17:35:01.164Z,17.90
2017-08-21T17:37:28.702Z,17.80
2017-08-21T17:39:56.235Z,17.70
2017-08-21T17:42:23.779Z,17.70
2017-08-21T17:44:51.309Z,17.50
2017-08-21T17:47:18.915Z,17.40
2017-08-21T17:49:47.219Z,17.20
2017-08-21T17:52:14.741Z,17.20
2017-08-21T17:54:42.362Z,17.10
2017-08-21T17:57:09.881Z,17.00
2017-08-21T17:59:37.421Z,16.80
2017-08-21T18:02:04.937Z,16.70
2017-08-21T18:04:32.477Z,16.60
2017-08-21T18:07:00.023Z,16.40
2017-08-21T18:09:27.594Z,16.30
2017-08-21T18:11:55.126Z,16.10
2017-08-21T18:14:22.673Z,16.00
2017-08-21T18:16:50.201Z,15.80
2017-08-21T18:19:17.761Z,15.60
2017-08-21T18:21:45.282Z,15.40
2017-08-21T18:24:12.842Z,15.30
2017-08-21T18:26:40.362Z,15.20
2017-08-21T18:29:07.882Z,15.10
2017-08-21T18:31:35.425Z,15.00
2017-08-21T18:34:02.953Z,14.90
2017-08-21T18:36:30.509Z,14.90
2017-08-21T18:38:58.034Z,14.90
2017-08-21T18:41:25.578Z,14.80
2017-08-21T18:43:53.110Z,14.80
2017-08-21T18:46:20.670Z,14.70
2017-08-21T18:48:48.202Z,14.70
2017-08-21T18:51:15.744Z,14.70
2017-08-21T18:53:43.288Z,14.60
2017-08-21T18:56:10.831Z,14.50
2017-08-21T18:58:38.357Z,14.30
2017-08-21T19:01:05.900Z,14.20
2017-08-21T19:03:33.418Z,14.10
2017-08-21T19:06:00.974Z,14.00
2017-08-21T19:08:28.504Z,14.00
2017-08-21T19:10:56.054Z,14.00
2017-08-21T19:13:23.603Z,14.00
2017-08-21T19:15:51.133Z,14.00
2017-08-21T19:18:18.706Z,13.90
2017-08-21T19:20:46.316Z,13.80
2017-08-21T19:23:13.869Z,13.60
2017-08-21T19:25:41.394Z,13.50
2017-08-21T19:28:08.933Z,13.40
2017-08-21T19:30:36.466Z,13.40
2017-08-21T19:33:04.717Z,13.20
2017-08-21T19:35:32.238Z,13.10
2017-08-21T19:37:59.781Z,13.00
2017-08-21T19:40:27.298Z,12.90
2017-08-21T19:42:54.819Z,12.70
2017-08-21T19:45:22.374Z,12.70
2017-08-21T19:47:49.910Z,12.70
2017-08-21T19:50:17.462Z,12.90
2017-08-21T19:52:44.977Z,12.80
2017-08-21T19:55:12.518Z,12.90
2017-08-21T19:57:40.038Z,12.80
2017-08-21T20:00:07.577Z,12.70
2017-08-21T20:02:35.102Z,12.60
2017-08-21T20:05:02.642Z,12.50
2017-08-21T20:07:30.173Z,12.50
2017-08-21T20:09:57.713Z,12.40
2017-08-21T20:12:25.237Z,12.40
2017-08-21T20:14:52.777Z,12.30
2017-08-21T20:17:20.302Z,12.30
2017-08-21T20:19:47.842Z,12.20
2017-08-21T20:22:15.357Z,12.20
2017-08-21T20:24:42.894Z,12.10
2017-08-21T20:27:10.424Z,12.00
2017-08-21T20:29:37.993Z,11.90
2017-08-21T20:32:05.510Z,11.80
2017-08-21T20:34:33.035Z,11.80
2017-08-21T20:37:00.581Z,11.80
2017-08-21T20:39:28.093Z,11.70
2017-08-21T20:41:55.653Z,11.70
2017-08-21T20:44:23.183Z,11.70
2017-08-21T20:46:50.719Z,11.60
2017-08-21T20:49:18.238Z,11.60
2017-08-21T20:51:45.792Z,11.60
2017-08-21T20:54:13.313Z,11.60
2017-08-21T20:56:40.861Z,11.60
2017-08-21T20:59:08.393Z,11.60
2017-08-21T21:01:35.940Z,11.50
2017-08-21T21:04:03.470Z,11.30
2017-08-21T21:06:31.021Z,11.20
2017-08-21T21:08:58.544Z,11.10
2017-08-21T21:11:26.122Z,11.10
2017-08-21T21:13:53.641Z,11.00
2017-08-21T21:16:21.192Z,10.90
2017-08-21T21:18:48.725Z,10.90
2017-08-21T21:21:16.255Z,10.90
2017-08-21T21:23:43.791Z,10.80
2017-08-21T21:26:11.307Z,10.80
2017-08-21T21:28:38.846Z,10.70
2017-08-21T21:31:06.364Z,10.70
2017-08-21T21:33:33.897Z,10.70
2017-08-21T21:36:01.409Z,10.70
2017-08-21T21:38:28.948Z,10.70
2017-08-21T21:40:56.470Z,10.70
2017-08-21T21:43:24.028Z,10.60
2017-08-21T21:45:51.543Z,10.60
2017-08-21T21:48:19.087Z,10.50
2017-08-21T21:50:47.322Z,10.50
2017-08-21T21:53:14.882Z,10.40
2017-08-21T21:55:42.402Z,10.40
2017-08-21T21:58:09.922Z,10.30
2017-08-21T22:00:37.462Z,10.20
2017-08-21T22:03:04.991Z,10.10
2017-08-21T22:05:32.529Z,10.10
2017-08-21T22:08:00.046Z,10.10
2017-08-21T22:10:27.606Z,10.00
2017-08-21T22:12:55.122Z,10.10
2017-08-21T22:15:22.656Z,10.10
2017-08-21T22:17:50.175Z,10.20
2017-08-21T22:20:17.704Z,10.20
2017-08-21T22:22:45.226Z,10.20
2017-08-21T22:25:12.770Z,10.20
2017-08-21T22:27:40.285Z,10.10
2017-08-21T22:30:07.818Z,10.00
2017-08-21T22:32:35.531Z,9.90
2017-08-21T22:35:03.075Z,9.80
2017-08-21T22:37:30.593Z,9.80
2017-08-21T22:39:58.106Z,9.70
2017-08-21T22:42:25.638Z,9.70
2017-08-21T22:44:53.154Z,9.70
2017-08-21T22:47:20.687Z,9.70
2017-08-21T22:49:48.206Z,9.80
2017-08-21T22:52:15.737Z,9.90
2017-08-21T22:54:43.254Z,10.00
2017-08-21T22:57:10.854Z,10.10
2017-08-21T22:59:38.379Z,10.00
2017-08-21T23:02:11.660Z,10.00
2017-08-21T23:04:39.172Z,9.90
2017-08-21T23:07:06.708Z,9.70
2017-08-21T23:09:34.220Z,9.60
2017-08-21T23:12:01.760Z,9.40
2017-08-21T23:14:29.273Z,9.40
2017-08-21T23:16:56.786Z,9.40
2017-08-21T23:19:24.319Z,9.40
2017-08-21T23:21:51.834Z,9.30
2017-08-21T23:24:19.369Z,9.30
2017-08-21T23:26:46.882Z,9.30
2017-08-21T23:29:14.454Z,9.20
2017-08-21T23:31:41.968Z,9.10
2017-08-21T23:34:09.501Z,9.10
2017-08-21T23:36:37.042Z,9.10
2017-08-21T23:39:04.582Z,9.10
2017-08-21T23:41:32.096Z,9.00
2017-08-21T23:43:59.634Z,8.90
2017-08-21T23:46:27.146Z,8.90
2017-08-21T23:48:54.687Z,8.80
2017-08-21T23:51:22.206Z,8.80
2017-08-21T23:53:49.728Z,8.80
2017-08-21T23:56:17.268Z,8.80
2017-08-21T23:58:44.778Z,8.90
